Time;durP1;ratioP1;P1;durP2;ratioP2;P2;SDS_P1;SDS_P2;PMS_P1;PMS_P2;Temp;Humidity;BMP_temperature;BMP_pressure;BME280_temperature;BME280_humidity;BME280_pressure;Samples;Min_cycle;Max_cycle;Signal;HPM_P1;HPM_P2
2022/03/29 00:02:13;;;;;;;5.30;4.53;;;;;;;;;;5072177;28;20467;-84
2022/03/29 00:04:39;;;;;;;6.78;5.38;;;;;;;;;;5054297;28;20475;-83
2022/03/29 00:07:04;;;;;;;5.55;4.70;;;;;;;;;;5072211;28;20053;-85
2022/03/29 00:09:30;;;;;;;6.65;5.03;;;;;;;;;;5072277;28;20115;-82
2022/03/29 00:11:55;;;;;;;5.55;4.22;;;;;;;;;;5054366;28;20475;-84
2022/03/29 00:14:21;;;;;;;7.00;4.75;;;;;;;;;;5037425;28;20344;-82
2022/03/29 00:16:46;;;;;;;7.45;4.40;;;;;;;;;;5072021;28;20074;-82
2022/03/29 00:19:12;;;;;;;9.95;5.13;;;;;;;;;;5072024;28;20134;-82
2022/03/29 00:21:37;;;;;;;8.63;5.07;;;;;;;;;;5037414;28;20395;-82
2022/03/29 00:24:03;;;;;;;5.88;4.47;;;;;;;;;;5053935;28;20090;-84
2022/03/29 00:26:30;;;;;;;5.80;4.68;;;;;;;;;;5037188;28;20472;-83
2022/03/29 00:28:55;;;;;;;5.57;4.85;;;;;;;;;;5037364;28;20033;-84
2022/03/29 00:31:20;;;;;;;6.72;4.80;;;;;;;;;;5037563;28;20070;-82
2022/03/29 00:33:47;;;;;;;6.75;5.10;;;;;;;;;;5037245;28;20029;-83
2022/03/29 00:36:13;;;;;;;5.95;4.93;;;;;;;;;;5053951;28;20052;-82
2022/03/29 00:38:38;;;;;;;6.47;4.55;;;;;;;;;;5072009;28;20121;-82
2022/03/29 00:41:04;;;;;;;5.72;4.47;;;;;;;;;;5056644;28;20029;-81
2022/03/29 00:43:29;;;;;;;5.65;4.22;;;;;;;;;;5072569;28;20033;-82
2022/03/29 00:45:55;;;;;;;4.78;4.25;;;;;;;;;;5056867;28;20024;-82
2022/03/29 00:48:21;;;;;;;6.82;4.63;;;;;;;;;;5057508;28;20024;-82
2022/03/29 00:50:47;;;;;;;6.15;4.82;;;;;;;;;;5041074;28;20074;-83
2022/03/29 00:53:13;;;;;;;6.15;4.40;;;;;;;;;;5058394;28;20063;-82
2022/03/29 00:55:39;;;;;;;5.30;4.40;;;;;;;;;;5041421;28;20060;-84
2022/03/29 00:58:07;;;;;;;6.50;4.93;;;;;;;;;;5075455;28;20086;-84
2022/03/29 01:00:34;;;;;;;9.27;4.78;;;;;;;;;;5057322;28;20052;-84
2022/03/29 01:03:03;;;;;;;6.00;4.60;;;;;;;;;;5057140;28;20047;-84
2022/03/29 01:05:32;;;;;;;6.38;4.53;;;;;;;;;;5041082;28;20020;-84
2022/03/29 01:07:58;;;;;;;5.32;4.32;;;;;;;;;;5023788;28;20097;-84
2022/03/29 01:10:24;;;;;;;7.25;3.85;;;;;;;;;;5057012;28;20032;-84
2022/03/29 01:12:51;;;;;;;5.75;4.05;;;;;;;;;;5057410;28;20032;-85
2022/03/29 01:15:18;;;;;;;5.50;4.15;;;;;;;;;;5057324;28;20032;-84
2022/03/29 01:17:43;;;;;;;6.85;4.38;;;;;;;;;;5057310;28;20073;-84
2022/03/29 01:20:24;;;;;;;5.60;4.07;;;;;;;;;;5040581;28;20445;-84
2022/03/29 01:22:51;;;;;;;6.75;5.05;;;;;;;;;;5057041;28;20029;-83
2022/03/29 01:25:21;;;;;;;4.57;3.90;;;;;;;;;;5057218;28;20493;-83
2022/03/29 01:27:48;;;;;;;9.60;5.38;;;;;;;;;;5056744;28;20081;-83
2022/03/29 01:30:14;;;;;;;5.65;4.07;;;;;;;;;;5056728;28;20032;-83
2022/03/29 01:32:45;;;;;;;5.75;4.43;;;;;;;;;;5074939;28;20029;-83
2022/03/29 01:35:11;;;;;;;5.60;4.32;;;;;;;;;;5056994;28;20107;-84
2022/03/29 01:37:37;;;;;;;5.45;4.10;;;;;;;;;;5039903;28;20031;-83
2022/03/29 01:40:13;;;;;;;5.90;4.40;;;;;;;;;;5056792;28;20020;-83
2022/03/29 01:42:42;;;;;;;8.45;4.57;;;;;;;;;;5056749;28;20151;-84
2022/03/29 01:45:09;;;;;;;7.65;4.20;;;;;;;;;;5057112;28;20360;-84
2022/03/29 01:47:34;;;;;;;7.13;4.72;;;;;;;;;;5039823;28;20028;-83
2022/03/29 01:49:59;;;;;;;4.78;4.20;;;;;;;;;;5074156;28;20489;-83
2022/03/29 01:52:25;;;;;;;9.35;4.53;;;;;;;;;;5074336;28;20031;-83
2022/03/29 01:54:50;;;;;;;6.70;4.20;;;;;;;;;;5056485;28;20467;-83
2022/03/29 01:57:15;;;;;;;5.30;4.40;;;;;;;;;;5073619;28;20044;-83
2022/03/29 02:02:25;;;;;;;4.80;4.30;;;;;;;;;;5058962;28;20406;-83
2022/03/29 02:04:50;;;;;;;6.93;4.43;;;;;;;;;;5055920;28;20029;-83
2022/03/29 02:07:16;;;;;;;5.57;4.35;;;;;;;;;;5056004;28;20044;-84
2022/03/29 02:09:42;;;;;;;6.45;4.53;;;;;;;;;;5074162;28;20467;-83
2022/03/29 02:12:09;;;;;;;4.50;3.92;;;;;;;;;;5056344;28;20040;-83
2022/03/29 02:14:34;;;;;;;5.85;4.35;;;;;;;;;;5039602;28;20111;-81
2022/03/29 02:17:00;;;;;;;5.65;4.47;;;;;;;;;;5056037;28;20412;-80
2022/03/29 02:19:26;;;;;;;5.65;4.53;;;;;;;;;;5039148;28;20041;-81
2022/03/29 02:21:51;;;;;;;5.75;4.43;;;;;;;;;;5074293;28;20028;-81
2022/03/29 02:24:17;;;;;;;6.10;4.82;;;;;;;;;;5055789;28;20379;-82
2022/03/29 02:26:42;;;;;;;6.20;4.68;;;;;;;;;;5039353;28;20582;-81
2022/03/29 02:29:08;;;;;;;6.40;4.75;;;;;;;;;;5073969;28;20055;-80
2022/03/29 02:31:34;;;;;;;5.80;4.25;;;;;;;;;;5073837;28;20497;-80
2022/03/29 02:33:59;;;;;;;4.80;4.10;;;;;;;;;;5074924;28;20140;-80
2022/03/29 02:36:25;;;;;;;6.35;4.70;;;;;;;;;;5055866;28;20036;-80
2022/03/29 02:38:50;;;;;;;4.65;3.90;;;;;;;;;;5074264;28;20043;-80
2022/03/29 02:41:15;;;;;;;5.28;4.15;;;;;;;;;;5056764;28;20071;-81
2022/03/29 02:43:41;;;;;;;5.57;4.18;;;;;;;;;;5058330;28;20086;-81
2022/03/29 02:46:07;;;;;;;5.18;4.30;;;;;;;;;;5056843;28;20029;-81
2022/03/29 02:48:32;;;;;;;5.20;3.83;;;;;;;;;;5055498;28;20056;-81
2022/03/29 02:50:58;;;;;;;4.55;3.63;;;;;;;;;;5039459;28;20020;-81
2022/03/29 02:53:23;;;;;;;4.85;3.95;;;;;;;;;;5055537;28;20039;-81
2022/03/29 02:55:48;;;;;;;5.50;4.28;;;;;;;;;;5074022;28;20140;-81
2022/03/29 02:58:14;;;;;;;5.70;4.45;;;;;;;;;;5073749;28;20025;-81
2022/03/29 03:00:39;;;;;;;4.88;4.05;;;;;;;;;;5055684;28;20068;-81
2022/03/29 03:03:06;;;;;;;4.90;4.28;;;;;;;;;;5038742;28;20021;-80
2022/03/29 03:05:31;;;;;;;5.22;4.15;;;;;;;;;;5055481;28;20415;-81
2022/03/29 03:07:57;;;;;;;4.95;4.30;;;;;;;;;;5072079;28;20045;-84
2022/03/29 03:10:23;;;;;;;4.40;3.70;;;;;;;;;;5055137;28;20356;-81
2022/03/29 03:12:49;;;;;;;8.15;4.03;;;;;;;;;;5038523;28;20391;-81
2022/03/29 03:15:16;;;;;;;4.30;3.47;;;;;;;;;;5038526;28;20111;-81
2022/03/29 03:17:42;;;;;;;4.32;3.67;;;;;;;;;;5054914;28;20020;-81
2022/03/29 03:20:08;;;;;;;5.22;4.20;;;;;;;;;;5054837;28;20376;-80
2022/03/29 03:22:38;;;;;;;5.10;3.85;;;;;;;;;;5055002;28;20032;-81
2022/03/29 03:25:05;;;;;;;5.63;3.30;;;;;;;;;;5038433;28;20479;-82
2022/03/29 03:27:30;;;;;;;4.47;4.05;;;;;;;;;;5071415;28;20459;-84
2022/03/29 03:29:56;;;;;;;5.32;4.50;;;;;;;;;;5073068;28;20031;-82
2022/03/29 03:32:21;;;;;;;5.60;4.03;;;;;;;;;;5054647;28;20059;-81
2022/03/29 03:34:47;;;;;;;5.28;3.88;;;;;;;;;;5038068;28;20036;-81
2022/03/29 03:37:12;;;;;;;5.30;4.00;;;;;;;;;;5072633;28;20029;-82
2022/03/29 03:39:38;;;;;;;4.00;3.35;;;;;;;;;;5055203;28;20137;-82
2022/03/29 03:42:09;;;;;;;5.68;3.47;;;;;;;;;;5038402;28;20047;-80
2022/03/29 03:44:35;;;;;;;4.15;3.47;;;;;;;;;;5055093;28;20383;-84
2022/03/29 03:47:02;;;;;;;5.57;3.72;;;;;;;;;;5054812;28;20094;-84
2022/03/29 03:49:27;;;;;;;4.80;3.53;;;;;;;;;;5054592;28;20029;-84
2022/03/29 03:51:53;;;;;;;5.47;4.10;;;;;;;;;;5037794;28;20035;-83
2022/03/29 03:54:18;;;;;;;4.40;3.75;;;;;;;;;;5041385;28;20044;-82
2022/03/29 03:56:44;;;;;;;4.22;3.65;;;;;;;;;;5072413;28;20029;-82
2022/03/29 03:59:09;;;;;;;4.28;3.80;;;;;;;;;;5054695;28;20039;-82
2022/03/29 04:01:35;;;;;;;5.20;4.38;;;;;;;;;;5037918;28;20442;-82
2022/03/29 04:04:00;;;;;;;4.13;3.70;;;;;;;;;;5055846;28;20028;-82
2022/03/29 04:06:25;;;;;;;7.13;4.45;;;;;;;;;;5054049;28;20520;-83
2022/03/29 04:08:51;;;;;;;4.65;3.90;;;;;;;;;;5072307;28;20033;-83
2022/03/29 04:11:16;;;;;;;5.07;3.90;;;;;;;;;;5072080;28;20029;-83
2022/03/29 04:13:42;;;;;;;5.32;4.00;;;;;;;;;;5037904;28;20025;-82
2022/03/29 04:16:07;;;;;;;8.05;3.72;;;;;;;;;;5053982;28;20033;-81
2022/03/29 04:18:33;;;;;;;6.32;4.75;;;;;;;;;;5037723;28;20086;-82
2022/03/29 04:20:58;;;;;;;6.22;4.55;;;;;;;;;;5057641;28;20036;-82
2022/03/29 04:23:24;;;;;;;10.27;4.70;;;;;;;;;;5058088;28;20054;-82
2022/03/29 04:25:49;;;;;;;7.57;4.82;;;;;;;;;;5041398;28;20088;-82
2022/03/29 04:28:14;;;;;;;10.77;4.80;;;;;;;;;;5058288;28;20028;-81
2022/03/29 04:30:40;;;;;;;9.63;4.93;;;;;;;;;;5075865;28;20033;-82
2022/03/29 04:33:06;;;;;;;9.05;4.45;;;;;;;;;;5077192;28;20503;-82
2022/03/29 04:35:32;;;;;;;8.80;5.05;;;;;;;;;;5077519;28;20491;-82
2022/03/29 04:37:57;;;;;;;8.75;4.85;;;;;;;;;;5026756;28;20036;-80
2022/03/29 04:40:23;;;;;;;10.00;5.40;;;;;;;;;;5042589;28;20025;-79
2022/03/29 04:42:49;;;;;;;12.65;5.47;;;;;;;;;;5059046;28;20021;-81
2022/03/29 04:45:16;;;;;;;9.98;5.50;;;;;;;;;;5059207;28;20039;-81
2022/03/29 04:47:42;;;;;;;10.32;5.32;;;;;;;;;;5059408;28;20029;-81
2022/03/29 04:50:09;;;;;;;9.98;5.38;;;;;;;;;;5059243;28;20029;-80
2022/03/29 04:52:35;;;;;;;11.90;4.70;;;;;;;;;;5076725;28;20104;-81
2022/03/29 04:55:00;;;;;;;9.30;5.00;;;;;;;;;;5076944;28;20036;-80
2022/03/29 04:57:26;;;;;;;11.85;4.80;;;;;;;;;;5042273;28;20098;-80
2022/03/29 04:59:51;;;;;;;8.75;5.45;;;;;;;;;;5077039;28;20491;-79
2022/03/29 05:02:17;;;;;;;11.35;5.22;;;;;;;;;;5076727;28;20119;-81
2022/03/29 05:04:42;;;;;;;15.95;6.28;;;;;;;;;;5058690;28;20056;-81
2022/03/29 05:07:08;;;;;;;22.27;7.15;;;;;;;;;;5042010;28;20048;-81
2022/03/29 05:09:33;;;;;;;39.72;10.55;;;;;;;;;;5058463;28;20036;-81
2022/03/29 05:11:59;;;;;;;27.33;9.18;;;;;;;;;;5059164;28;20480;-81
2022/03/29 05:14:25;;;;;;;27.40;9.43;;;;;;;;;;5060000;28;20480;-81
2022/03/29 05:16:50;;;;;;;29.55;8.88;;;;;;;;;;5059287;28;20028;-82
2022/03/29 05:19:16;;;;;;;29.23;9.07;;;;;;;;;;5077294;28;20035;-82
2022/03/29 05:21:42;;;;;;;21.40;8.35;;;;;;;;;;5077261;28;20085;-81
2022/03/29 05:24:08;;;;;;;37.75;9.55;;;;;;;;;;5077319;28;20407;-81
2022/03/29 05:26:34;;;;;;;18.67;8.13;;;;;;;;;;5059977;28;20024;-81
2022/03/29 05:28:59;;;;;;;20.08;8.88;;;;;;;;;;5060214;28;20491;-80
2022/03/29 05:31:25;;;;;;;20.52;8.55;;;;;;;;;;5058378;28;20021;-81
2022/03/29 05:33:50;;;;;;;19.38;7.75;;;;;;;;;;5077985;28;20036;-81
2022/03/29 05:36:15;;;;;;;18.48;7.72;;;;;;;;;;5076482;28;20056;-81
2022/03/29 05:38:47;;;;;;;18.35;7.45;;;;;;;;;;5058131;28;20031;-81
2022/03/29 05:41:15;;;;;;;24.85;7.72;;;;;;;;;;5076691;28;20032;-80
2022/03/29 05:43:41;;;;;;;19.35;7.85;;;;;;;;;;5059277;28;20032;-80
2022/03/29 05:48:52;;;;;;;14.93;7.82;;;;;;;;;;5034605;28;20486;-80
2022/03/29 05:51:19;;;;;;;20.92;7.43;;;;;;;;;;5059752;28;20033;-79
2022/03/29 05:53:44;;;;;;;16.80;6.88;;;;;;;;;;5044408;28;20556;-81
2022/03/29 05:56:10;;;;;;;12.45;6.22;;;;;;;;;;5045022;28;20036;-81
2022/03/29 05:58:35;;;;;;;13.32;6.75;;;;;;;;;;5060757;28;20074;-80
2022/03/29 06:01:01;;;;;;;16.65;7.57;;;;;;;;;;5059322;28;20082;-79
2022/03/29 06:03:26;;;;;;;14.35;6.93;;;;;;;;;;5058989;28;20033;-80
2022/03/29 06:05:51;;;;;;;15.10;6.70;;;;;;;;;;5075879;28;20056;-81
2022/03/29 06:08:17;;;;;;;13.80;7.10;;;;;;;;;;5054282;28;20056;-80
2022/03/29 06:10:42;;;;;;;16.65;7.15;;;;;;;;;;5055725;28;20038;-81
2022/03/29 06:13:08;;;;;;;14.60;6.60;;;;;;;;;;5037800;28;20029;-81
2022/03/29 06:15:35;;;;;;;13.10;6.55;;;;;;;;;;5054230;28;20025;-81
2022/03/29 06:18:01;;;;;;;11.70;6.88;;;;;;;;;;5037847;28;20025;-81
2022/03/29 06:20:26;;;;;;;16.83;6.70;;;;;;;;;;5020933;28;20032;-80
2022/03/29 06:22:52;;;;;;;13.60;7.25;;;;;;;;;;5054325;28;20040;-79
2022/03/29 06:25:17;;;;;;;11.48;6.93;;;;;;;;;;5055196;28;20071;-79
2022/03/29 06:27:43;;;;;;;10.15;6.25;;;;;;;;;;5057049;28;20391;-79
2022/03/29 06:30:10;;;;;;;12.45;7.18;;;;;;;;;;5045814;28;20031;-80
2022/03/29 06:32:46;;;;;;;13.25;6.60;;;;;;;;;;5061369;28;20112;-79
2022/03/29 06:35:12;;;;;;;13.20;7.18;;;;;;;;;;5055572;28;20394;-80
2022/03/29 06:37:37;;;;;;;12.45;6.50;;;;;;;;;;5037684;28;20031;-80
2022/03/29 06:40:03;;;;;;;11.20;6.15;;;;;;;;;;5055943;28;20033;-80
2022/03/29 06:42:29;;;;;;;10.60;5.95;;;;;;;;;;5055281;28;20036;-80
2022/03/29 06:44:54;;;;;;;10.88;6.10;;;;;;;;;;5055591;28;20064;-81
2022/03/29 06:47:20;;;;;;;8.20;5.72;;;;;;;;;;5056036;28;20120;-80
2022/03/29 06:49:46;;;;;;;10.65;6.35;;;;;;;;;;5053576;28;20052;-80
2022/03/29 06:52:11;;;;;;;11.27;6.53;;;;;;;;;;5054801;28;20033;-80
2022/03/29 06:54:37;;;;;;;14.63;7.43;;;;;;;;;;5054571;28;20141;-80
2022/03/29 06:57:04;;;;;;;10.93;6.80;;;;;;;;;;5036892;28;20491;-80
2022/03/29 06:59:29;;;;;;;11.93;6.75;;;;;;;;;;5053459;28;20098;-80
2022/03/29 07:01:55;;;;;;;10.13;6.30;;;;;;;;;;5053333;28;20029;-80
2022/03/29 07:04:20;;;;;;;11.32;6.45;;;;;;;;;;5054330;28;20033;-79
2022/03/29 07:06:46;;;;;;;8.68;6.65;;;;;;;;;;5053079;28;20157;-80
2022/03/29 07:11:56;;;;;;;10.80;6.15;;;;;;;;;;5039358;28;20051;-79
2022/03/29 07:14:21;;;;;;;10.75;7.25;;;;;;;;;;5036667;28;20028;-80
2022/03/29 07:16:47;;;;;;;9.55;6.07;;;;;;;;;;5052921;28;20037;-80
2022/03/29 07:19:13;;;;;;;11.63;6.50;;;;;;;;;;5037465;28;20443;-78
2022/03/29 07:21:39;;;;;;;10.52;6.63;;;;;;;;;;5054370;28;20086;-79
2022/03/29 07:24:06;;;;;;;15.60;6.35;;;;;;;;;;5021571;28;20013;-79
2022/03/29 07:26:32;;;;;;;11.57;6.93;;;;;;;;;;5052925;28;20029;-78
2022/03/29 07:28:57;;;;;;;13.10;6.50;;;;;;;;;;5053125;28;20032;-78
2022/03/29 07:31:23;;;;;;;20.83;6.25;;;;;;;;;;5037675;28;20032;-80
2022/03/29 07:33:48;;;;;;;8.77;5.78;;;;;;;;;;5036273;28;20052;-79
2022/03/29 07:36:14;;;;;;;12.85;6.45;;;;;;;;;;5052780;28;20056;-78
2022/03/29 07:38:39;;;;;;;7.60;5.47;;;;;;;;;;5052898;28;20094;-79
2022/03/29 07:41:05;;;;;;;11.60;6.63;;;;;;;;;;5036799;28;20119;-78
2022/03/29 07:43:31;;;;;;;12.30;6.53;;;;;;;;;;5052572;28;20025;-80
2022/03/29 07:45:57;;;;;;;8.45;5.32;;;;;;;;;;5053809;28;20039;-79
2022/03/29 07:48:22;;;;;;;14.13;6.45;;;;;;;;;;5036184;28;20074;-78
2022/03/29 07:50:48;;;;;;;10.60;6.10;;;;;;;;;;5052526;28;20480;-79
2022/03/29 07:53:14;;;;;;;12.25;6.25;;;;;;;;;;5052429;28;20039;-79
2022/03/29 07:55:40;;;;;;;12.23;6.03;;;;;;;;;;5051994;28;20357;-81
2022/03/29 07:58:06;;;;;;;9.80;6.07;;;;;;;;;;5053160;28;20021;-78
2022/03/29 08:00:32;;;;;;;10.20;5.75;;;;;;;;;;5055756;28;20025;-80
2022/03/29 08:03:07;;;;;;;10.02;5.82;;;;;;;;;;5052965;28;20032;-80
2022/03/29 08:05:34;;;;;;;13.30;5.70;;;;;;;;;;5052561;28;20460;-80
2022/03/29 08:07:59;;;;;;;11.63;5.43;;;;;;;;;;5052011;28;20084;-80
2022/03/29 08:10:30;;;;;;;8.23;5.65;;;;;;;;;;5035796;28;20496;-79
2022/03/29 08:13:07;;;;;;;11.85;6.57;;;;;;;;;;5035433;28;20120;-80
2022/03/29 08:15:34;;;;;;;12.23;5.88;;;;;;;;;;5053348;28;20364;-80
2022/03/29 08:17:59;;;;;;;8.10;5.80;;;;;;;;;;5052341;28;20029;-80
2022/03/29 08:20:25;;;;;;;8.05;6.03;;;;;;;;;;5053275;28;20021;-80
2022/03/29 08:22:52;;;;;;;7.20;5.45;;;;;;;;;;5053352;28;20041;-80
2022/03/29 08:25:18;;;;;;;14.93;6.93;;;;;;;;;;5035426;28;20027;-80
2022/03/29 08:27:45;;;;;;;10.43;5.47;;;;;;;;;;5053183;28;20021;-80
2022/03/29 08:30:12;;;;;;;12.80;6.47;;;;;;;;;;5053298;28;20486;-80
2022/03/29 08:32:38;;;;;;;8.15;5.88;;;;;;;;;;5051938;28;20029;-80
2022/03/29 08:35:05;;;;;;;8.82;5.53;;;;;;;;;;5052203;28;20024;-79
2022/03/29 08:37:31;;;;;;;9.55;6.07;;;;;;;;;;5035346;28;20476;-79
2022/03/29 08:39:56;;;;;;;9.35;6.45;;;;;;;;;;5035425;28;20040;-79
2022/03/29 08:42:23;;;;;;;11.65;6.20;;;;;;;;;;5052989;28;20033;-79
2022/03/29 08:44:49;;;;;;;15.02;6.65;;;;;;;;;;5052987;28;20108;-79
2022/03/29 08:47:17;;;;;;;10.30;6.03;;;;;;;;;;5052076;28;20116;-80
2022/03/29 08:49:44;;;;;;;11.40;5.97;;;;;;;;;;5051612;28;20029;-79
2022/03/29 08:52:11;;;;;;;9.70;6.30;;;;;;;;;;5051674;28;20072;-79
2022/03/29 08:54:36;;;;;;;12.32;6.45;;;;;;;;;;5019024;28;20029;-79
2022/03/29 08:57:01;;;;;;;9.10;6.05;;;;;;;;;;5034984;28;20028;-79
2022/03/29 08:59:28;;;;;;;10.77;6.53;;;;;;;;;;5035084;28;20029;-79
2022/03/29 09:01:55;;;;;;;9.32;6.25;;;;;;;;;;5051589;28;20054;-79
2022/03/29 09:04:22;;;;;;;9.35;6.40;;;;;;;;;;5052843;28;20464;-79
2022/03/29 09:06:54;;;;;;;10.23;6.25;;;;;;;;;;5063252;28;20052;-79
2022/03/29 09:09:40;;;;;;;13.13;6.53;;;;;;;;;;5076918;28;20115;-79
2022/03/29 09:12:13;;;;;;;10.02;6.72;;;;;;;;;;5058442;28;20025;-80
2022/03/29 09:14:52;;;;;;;;;;;;;;;;;;5059176;28;20411;-79
2022/03/29 09:17:35;;;;;;;9.65;5.68;;;;;;;;;;5058367;28;19908;-80
2022/03/29 09:20:22;;;;;;;13.82;6.68;;;;;;;;;;5058903;28;20078;-80
2022/03/29 09:22:50;;;;;;;8.50;5.75;;;;;;;;;;5075177;28;20093;-80
2022/03/29 09:25:36;;;;;;;9.93;6.45;;;;;;;;;;5058612;28;20086;-80
2022/03/29 09:28:13;;;;;;;10.02;6.28;;;;;;;;;;5076648;28;20025;-80
2022/03/29 09:30:52;;;;;;;9.65;6.50;;;;;;;;;;5042026;28;20033;-80
2022/03/29 09:33:30;;;;;;;10.35;6.40;;;;;;;;;;5076318;28;20021;-80
2022/03/29 09:35:58;;;;;;;9.65;6.38;;;;;;;;;;5057999;28;20020;-80
2022/03/29 09:38:37;;;;;;;9.57;6.43;;;;;;;;;;5075983;28;20451;-80
2022/03/29 09:41:05;;;;;;;10.77;6.40;;;;;;;;;;5058335;28;20028;-82
2022/03/29 09:43:32;;;;;;;8.07;6.18;;;;;;;;;;5041340;28;20059;-80
2022/03/29 09:45:59;;;;;;;8.80;6.40;;;;;;;;;;5076082;28;20039;-80
2022/03/29 09:48:37;;;;;;;9.68;6.60;;;;;;;;;;5041404;28;20054;-80
2022/03/29 09:51:08;;;;;;;10.43;5.80;;;;;;;;;;5058057;28;20025;-80
2022/03/29 09:53:39;;;;;;;12.07;6.55;;;;;;;;;;5076395;28;20021;-80
2022/03/29 09:56:06;;;;;;;9.73;6.53;;;;;;;;;;5058150;28;20082;-80
2022/03/29 09:58:32;;;;;;;8.75;6.28;;;;;;;;;;5058192;28;20024;-80
2022/03/29 10:00:58;;;;;;;8.75;6.40;;;;;;;;;;5076233;28;20052;-80
2022/03/29 10:03:24;;;;;;;9.00;5.78;;;;;;;;;;5040903;28;20062;-80
2022/03/29 10:05:50;;;;;;;8.82;5.80;;;;;;;;;;5058874;28;20398;-80
2022/03/29 10:11:01;;;;;;;11.10;6.38;;;;;;;;;;5061229;28;20035;-81
2022/03/29 10:13:28;;;;;;;10.05;6.15;;;;;;;;;;5075396;28;20029;-80
2022/03/29 10:15:55;;;;;;;9.52;5.88;;;;;;;;;;5057823;28;20028;-80
2022/03/29 10:18:24;;;;;;;10.60;6.45;;;;;;;;;;5056923;28;20021;-80
2022/03/29 10:20:49;;;;;;;9.88;6.40;;;;;;;;;;5041178;28;20074;-82
2022/03/29 10:23:18;;;;;;;8.80;6.05;;;;;;;;;;5058028;28;20036;-79
2022/03/29 10:25:44;;;;;;;7.57;5.97;;;;;;;;;;5075280;28;20039;-79
2022/03/29 10:28:09;;;;;;;8.85;6.40;;;;;;;;;;5040603;28;20020;-79
2022/03/29 10:30:35;;;;;;;8.95;6.22;;;;;;;;;;5040733;28;20032;-80
2022/03/29 10:33:23;;;;;;;10.27;6.13;;;;;;;;;;5075583;28;20543;-80
2022/03/29 10:36:05;;;;;;;7.88;5.70;;;;;;;;;;5058003;28;20035;-79
2022/03/29 10:38:45;;;;;;;9.20;6.35;;;;;;;;;;5075547;28;20558;-79
2022/03/29 10:41:26;;;;;;;8.52;6.20;;;;;;;;;;5057765;28;20060;-79
2022/03/29 10:44:08;;;;;;;6.78;5.40;;;;;;;;;;5076370;28;20025;-79
2022/03/29 10:46:36;;;;;;;10.05;6.00;;;;;;;;;;5057949;28;20017;-79
2022/03/29 10:49:31;;;;;;;9.80;5.20;;;;;;;;;;5056587;28;20021;-79
2022/03/29 10:52:19;;;;;;;9.77;4.80;;;;;;;;;;5057930;28;20024;-80
2022/03/29 10:54:45;;;;;;;9.18;5.13;;;;;;;;;;5074338;28;20102;-80
2022/03/29 10:57:14;;;;;;;6.75;4.70;;;;;;;;;;5074366;28;20029;-80
2022/03/29 10:59:39;;;;;;;8.57;5.03;;;;;;;;;;5056407;28;20056;-80
2022/03/29 11:02:15;;;;;;;8.88;5.13;;;;;;;;;;5056707;28;20068;-80
2022/03/29 11:04:59;;;;;;;6.97;5.15;;;;;;;;;;5056388;28;20489;-80
2022/03/29 11:07:25;;;;;;;8.00;4.95;;;;;;;;;;5073950;28;20423;-80
2022/03/29 11:10:16;;;;;;;8.68;4.47;;;;;;;;;;5056297;28;20036;-81
2022/03/29 11:12:46;;;;;;;5.38;3.90;;;;;;;;;;5039514;28;20020;-82
2022/03/29 11:15:24;;;;;;;9.43;4.40;;;;;;;;;;5074085;28;20028;-83
2022/03/29 11:17:52;;;;;;;5.75;3.78;;;;;;;;;;5056364;28;20028;-82
2022/03/29 11:20:38;;;;;;;4.38;3.70;;;;;;;;;;5056189;28;20025;-82
2022/03/29 11:23:09;;;;;;;7.45;3.67;;;;;;;;;;5039564;28;20107;-83
2022/03/29 11:25:43;;;;;;;8.52;4.72;;;;;;;;;;5055943;28;20570;-81
2022/03/29 11:28:12;;;;;;;7.43;5.03;;;;;;;;;;5056465;28;20028;-80
2022/03/29 11:30:38;;;;;;;9.90;6.25;;;;;;;;;;5055256;28;20031;-80
2022/03/29 11:33:05;;;;;;;8.07;5.70;;;;;;;;;;5039252;28;20029;-80
2022/03/29 11:35:33;;;;;;;11.52;5.95;;;;;;;;;;5055845;28;20476;-80
2022/03/29 11:38:10;;;;;;;10.52;7.45;;;;;;;;;;5038916;28;20059;-81
2022/03/29 11:40:36;;;;;;;8.00;5.97;;;;;;;;;;5055829;28;20025;-83
2022/03/29 11:43:05;;;;;;;9.05;5.70;;;;;;;;;;5055883;28;20114;-85
2022/03/29 11:45:36;;;;;;;11.55;6.10;;;;;;;;;;5073832;28;20034;-82
2022/03/29 11:48:13;;;;;;;9.93;6.38;;;;;;;;;;5073844;28;20028;-82
2022/03/29 11:50:43;;;;;;;9.27;6.60;;;;;;;;;;5055958;28;20016;-81
2022/03/29 11:53:25;;;;;;;9.23;6.05;;;;;;;;;;5056184;28;20034;-80
2022/03/29 11:56:02;;;;;;;9.38;5.97;;;;;;;;;;5073944;28;20031;-80
2022/03/29 11:58:49;;;;;;;10.50;6.95;;;;;;;;;;5055422;28;20431;-80
2022/03/29 12:01:19;;;;;;;10.82;6.50;;;;;;;;;;5055962;28;20036;-80
2022/03/29 12:03:47;;;;;;;9.45;6.60;;;;;;;;;;5055447;28;20028;-80
2022/03/29 12:06:16;;;;;;;8.50;6.63;;;;;;;;;;5055555;28;20024;-80
2022/03/29 12:09:02;;;;;;;12.38;6.97;;;;;;;;;;5055411;28;20032;-80
2022/03/29 12:11:33;;;;;;;9.75;5.38;;;;;;;;;;5055670;28;20111;-80
2022/03/29 12:14:08;;;;;;;9.68;5.60;;;;;;;;;;5055632;28;20059;-82
2022/03/29 12:16:39;;;;;;;7.88;4.45;;;;;;;;;;5056014;28;20430;-84
2022/03/29 12:19:09;;;;;;;5.82;3.80;;;;;;;;;;5055396;28;20028;-83
2022/03/29 12:21:35;;;;;;;9.75;4.65;;;;;;;;;;5073644;28;20387;-86
2022/03/29 12:24:10;;;;;;;6.18;3.20;;;;;;;;;;5038801;28;20031;-88
2022/03/29 12:26:43;;;;;;;5.13;4.07;;;;;;;;;;5055696;28;20074;-84
2022/03/29 12:29:11;;;;;;;10.27;4.38;;;;;;;;;;5055941;28;20100;-86
2022/03/29 12:31:37;;;;;;;7.72;5.35;;;;;;;;;;5055285;28;20044;-85
2022/03/29 12:34:03;;;;;;;5.18;3.95;;;;;;;;;;5038932;28;20103;-85
2022/03/29 12:36:29;;;;;;;7.32;5.07;;;;;;;;;;5055257;28;20090;-85
2022/03/29 12:39:03;;;;;;;6.15;4.13;;;;;;;;;;5038644;28;20028;-84
2022/03/29 12:41:35;;;;;;;10.77;5.97;;;;;;;;;;5057736;28;20029;-84
2022/03/29 12:44:01;;;;;;;7.13;4.10;;;;;;;;;;5059428;28;20040;-84
2022/03/29 12:46:28;;;;;;;10.60;5.97;;;;;;;;;;5042373;28;20044;-84
2022/03/29 12:48:55;;;;;;;6.55;4.65;;;;;;;;;;5059349;28;20025;-84
2022/03/29 12:51:29;;;;;;;11.20;5.10;;;;;;;;;;5076870;28;20021;-85
2022/03/29 12:54:19;;;;;;;8.32;4.90;;;;;;;;;;5059457;28;20024;-84
2022/03/29 12:56:46;;;;;;;6.45;4.47;;;;;;;;;;5076291;28;20040;-85
2022/03/29 12:59:36;;;;;;;9.93;4.75;;;;;;;;;;5077684;28;20170;-85
2022/03/29 13:02:19;;;;;;;6.32;4.60;;;;;;;;;;5077074;28;20104;-85
2022/03/29 13:04:49;;;;;;;6.38;5.20;;;;;;;;;;5078575;28;20024;-85
2022/03/29 13:07:48;;;;;;;7.50;4.47;;;;;;;;;;5058875;28;20462;-85
2022/03/29 13:10:21;;;;;;;10.07;4.80;;;;;;;;;;5043728;28;20071;-84
2022/03/29 13:12:59;;;;;;;7.25;4.78;;;;;;;;;;5058933;28;20099;-84
2022/03/29 13:15:50;;;;;;;9.02;4.47;;;;;;;;;;5076518;28;20020;-83
2022/03/29 13:18:26;;;;;;;7.18;4.78;;;;;;;;;;5058964;28;20052;-84
2022/03/29 13:21:32;;;;;;;6.20;4.38;;;;;;;;;;5077244;28;20031;-84
2022/03/29 13:24:03;;;;;;;7.78;5.43;;;;;;;;;;5058476;28;20051;-84
2022/03/29 13:26:30;;;;;;;10.48;5.07;;;;;;;;;;5076341;28;20604;-84
2022/03/29 13:28:56;;;;;;;5.93;4.90;;;;;;;;;;5058245;28;20387;-84
2022/03/29 13:31:27;;;;;;;6.03;4.47;;;;;;;;;;5058190;28;20494;-84
2022/03/29 13:33:54;;;;;;;7.70;5.63;;;;;;;;;;5042150;28;20035;-83
2022/03/29 13:36:21;;;;;;;8.57;4.75;;;;;;;;;;5058514;28;20028;-84
2022/03/29 13:38:48;;;;;;;7.88;4.72;;;;;;;;;;5076122;28;20032;-84
2022/03/29 13:41:15;;;;;;;11.02;4.65;;;;;;;;;;5058123;28;20052;-83
2022/03/29 13:43:41;;;;;;;9.63;4.82;;;;;;;;;;5059990;28;20028;-83
2022/03/29 13:46:08;;;;;;;7.72;5.50;;;;;;;;;;5042900;28;20035;-83
2022/03/29 13:48:37;;;;;;;6.40;4.30;;;;;;;;;;5048520;28;20128;-82
2022/03/29 13:51:05;;;;;;;8.30;5.30;;;;;;;;;;5067624;28;20078;-82
2022/03/29 13:53:31;;;;;;;8.73;4.90;;;;;;;;;;5061750;28;20461;-85
2022/03/29 13:55:56;;;;;;;7.60;5.05;;;;;;;;;;5059052;28;20111;-83
2022/03/29 13:58:22;;;;;;;7.85;5.00;;;;;;;;;;5076570;28;20036;-83
2022/03/29 14:00:48;;;;;;;12.18;4.82;;;;;;;;;;5041707;28;20024;-82
2022/03/29 14:03:14;;;;;;;8.38;4.88;;;;;;;;;;5057713;28;20058;-82
2022/03/29 14:05:45;;;;;;;8.68;4.75;;;;;;;;;;5058156;28;20052;-83
2022/03/29 14:08:12;;;;;;;12.00;5.43;;;;;;;;;;5040791;28;20048;-83
2022/03/29 14:10:38;;;;;;;10.88;5.47;;;;;;;;;;5075818;28;20390;-82
2022/03/29 14:13:05;;;;;;;7.25;4.80;;;;;;;;;;5040811;28;20020;-82
2022/03/29 14:15:32;;;;;;;9.43;4.93;;;;;;;;;;5057610;28;20048;-81
2022/03/29 14:17:57;;;;;;;10.63;5.10;;;;;;;;;;5057478;28;20036;-82
2022/03/29 14:20:24;;;;;;;5.65;4.10;;;;;;;;;;5057675;28;20024;-82
2022/03/29 14:22:49;;;;;;;7.57;4.25;;;;;;;;;;5040818;28;20025;-82
2022/03/29 14:25:16;;;;;;;6.10;4.38;;;;;;;;;;5057257;28;20039;-83
2022/03/29 14:27:42;;;;;;;6.20;4.35;;;;;;;;;;5057581;28;20078;-82
2022/03/29 14:30:10;;;;;;;7.13;4.85;;;;;;;;;;5057168;28;20516;-82
2022/03/29 14:32:35;;;;;;;12.73;4.50;;;;;;;;;;5056971;28;20028;-81
2022/03/29 14:35:05;;;;;;;8.75;4.70;;;;;;;;;;5023985;28;20501;-82
2022/03/29 14:37:34;;;;;;;6.38;4.25;;;;;;;;;;5058062;28;20383;-82
2022/03/29 14:40:02;;;;;;;5.75;4.07;;;;;;;;;;5074638;28;20029;-81
2022/03/29 14:42:28;;;;;;;7.70;4.65;;;;;;;;;;5074644;28;20035;-84
2022/03/29 14:44:54;;;;;;;5.00;3.83;;;;;;;;;;5074704;28;20033;-85
2022/03/29 14:47:21;;;;;;;6.32;4.63;;;;;;;;;;5023950;28;20036;-85
2022/03/29 14:49:46;;;;;;;13.07;3.72;;;;;;;;;;5040011;28;20051;-84
2022/03/29 14:52:12;;;;;;;5.13;3.67;;;;;;;;;;5040079;28;20387;-85
2022/03/29 14:54:39;;;;;;;6.28;3.90;;;;;;;;;;5074931;28;20430;-84
2022/03/29 14:57:05;;;;;;;6.75;4.22;;;;;;;;;;5056466;28;20032;-81